createdAt,value
2018-09-08T00:00:56.386Z,10.14
2018-09-08T00:01:56.394Z,10.10
2018-09-08T00:02:56.341Z,10.08
2018-09-08T00:03:56.328Z,10.05
2018-09-08T00:04:56.375Z,10.12
2018-09-08T00:05:56.309Z,10.08
2018-09-08T00:06:56.304Z,10.02
2018-09-08T00:07:56.321Z,10.02
2018-09-08T00:08:56.274Z,10.05
2018-09-08T00:09:56.265Z,9.99
2018-09-08T00:10:56.263Z,9.99
2018-09-08T00:11:56.241Z,9.98
2018-09-08T00:12:56.236Z,10.01
2018-09-08T00:13:56.255Z,10.01
2018-09-08T00:14:56.217Z,9.96
2018-09-08T00:15:56.224Z,9.94
2018-09-08T00:16:56.196Z,9.93
2018-09-08T00:17:56.177Z,9.87
2018-09-08T00:18:56.167Z,9.96
2018-09-08T00:19:56.198Z,9.93
2018-09-08T00:20:56.142Z,9.98
2018-09-08T00:21:56.156Z,9.93
2018-09-08T00:22:56.123Z,9.90
2018-09-08T00:23:56.110Z,9.90
2018-09-08T00:24:56.102Z,9.99
2018-09-08T00:25:56.117Z,9.90
2018-09-08T00:26:56.093Z,9.88
2018-09-08T00:27:56.135Z,9.90
2018-09-08T00:28:56.057Z,9.90
2018-09-08T00:29:56.050Z,9.88
2018-09-08T00:30:56.032Z,9.85
2018-09-08T00:31:56.056Z,9.84
2018-09-08T00:32:56.018Z,9.81
2018-09-08T00:33:56.022Z,9.77
2018-09-08T00:34:55.991Z,9.80
2018-09-08T00:35:55.982Z,9.73
2018-09-08T00:36:55.972Z,9.73
2018-09-08T00:37:56.007Z,9.83
2018-09-08T00:38:55.953Z,9.78
2018-09-08T00:39:55.979Z,9.80
2018-09-08T00:40:55.930Z,9.80
2018-09-08T00:41:55.913Z,9.84
2018-09-08T00:42:55.902Z,9.85
2018-09-08T00:43:55.927Z,9.83
2018-09-08T00:44:55.880Z,9.88
2018-09-08T00:45:55.968Z,9.81
2018-09-08T00:46:55.858Z,9.91
2018-09-08T00:47:55.846Z,9.90
2018-09-08T00:48:55.839Z,9.85
2018-09-08T00:49:55.869Z,9.78
2018-09-08T00:50:55.823Z,9.84
2018-09-08T00:51:55.830Z,9.77
2018-09-08T00:52:55.793Z,9.83
2018-09-08T00:53:55.788Z,9.81
2018-09-08T00:54:55.770Z,9.78
2018-09-08T00:55:55.798Z,9.73
2018-09-08T00:56:55.761Z,9.75
2018-09-08T00:57:55.753Z,9.66
2018-09-08T00:58:55.727Z,9.69
2018-09-08T00:59:55.716Z,9.70
2018-09-08T01:00:55.707Z,9.69
2018-09-08T01:01:55.732Z,9.66
2018-09-08T01:02:55.683Z,9.65
2018-09-08T01:03:55.735Z,9.66
2018-09-08T01:04:55.661Z,9.67
2018-09-08T01:05:55.656Z,9.75
2018-09-08T01:06:55.648Z,9.73
2018-09-08T01:07:55.659Z,9.67
2018-09-08T01:08:55.625Z,9.69
2018-09-08T01:09:55.622Z,9.69
2018-09-08T01:10:55.601Z,9.65
2018-09-08T01:11:55.589Z,9.69
2018-09-08T01:12:55.575Z,9.72
2018-09-08T01:13:55.606Z,9.67
2018-09-08T01:14:55.554Z,9.60
2018-09-08T01:15:55.560Z,9.65
2018-09-08T01:16:55.532Z,9.67
2018-09-08T01:17:55.532Z,9.65
2018-09-08T01:18:55.522Z,9.73
2018-09-08T01:19:55.528Z,9.62
2018-09-08T01:20:55.489Z,9.66
2018-09-08T01:21:55.495Z,9.69
2018-09-08T01:22:55.468Z,9.65
2018-09-08T01:23:55.467Z,9.63
2018-09-08T01:24:55.447Z,9.67
2018-09-08T01:25:55.467Z,9.66
2018-09-08T01:26:55.427Z,9.60
2018-09-08T01:27:55.439Z,9.66
2018-09-08T01:28:55.401Z,9.62
2018-09-08T01:29:55.390Z,9.62
2018-09-08T01:30:55.385Z,9.60
2018-09-08T01:31:55.409Z,9.57
2018-09-08T01:32:55.361Z,9.66
2018-09-08T01:33:55.360Z,9.63
2018-09-08T01:34:55.335Z,9.66
2018-09-08T01:35:55.323Z,9.67
2018-09-08T01:36:55.315Z,9.65
2018-09-08T01:37:55.338Z,9.63
2018-09-08T01:38:55.291Z,9.72
2018-09-08T01:39:55.290Z,9.66
2018-09-08T01:40:55.272Z,9.67
2018-09-08T01:41:55.264Z,9.59
2018-09-08T01:42:55.246Z,9.69
2018-09-08T01:43:55.276Z,9.67
2018-09-08T01:44:55.235Z,9.57
2018-09-08T01:45:55.227Z,9.57
2018-09-08T01:46:55.203Z,9.51
2018-09-08T01:47:55.197Z,9.60
2018-09-08T01:48:55.183Z,9.45
2018-09-08T01:49:55.210Z,9.42
2018-09-08T01:50:55.162Z,9.44
2018-09-08T01:51:55.177Z,9.45
2018-09-08T01:52:55.143Z,9.30
2018-09-08T01:53:55.129Z,9.33
2018-09-08T01:54:55.117Z,9.29
2018-09-08T01:55:55.144Z,9.29
2018-09-08T01:56:55.095Z,9.24
2018-09-08T01:57:55.092Z,9.29
2018-09-08T01:58:55.078Z,9.22
2018-09-08T01:59:55.067Z,9.30
2018-09-08T02:00:55.055Z,9.26
2018-09-08T02:01:55.074Z,9.16
2018-09-08T02:02:55.031Z,9.14
2018-09-08T02:03:55.044Z,9.18
2018-09-08T02:04:55.007Z,9.19
2018-09-08T02:05:54.998Z,9.11
2018-09-08T02:06:54.989Z,9.06
2018-09-08T02:07:55.022Z,9.18
2018-09-08T02:08:54.966Z,9.12
2018-09-08T02:09:54.978Z,9.12
2018-09-08T02:10:54.953Z,9.09
2018-09-08T02:11:54.931Z,9.16
2018-09-08T02:12:54.924Z,9.12
2018-09-08T02:13:54.953Z,9.11
2018-09-08T02:14:54.900Z,9.12
2018-09-08T02:15:54.900Z,9.11
2018-09-08T02:16:54.892Z,9.15
2018-09-08T02:17:54.866Z,9.09
2018-09-08T02:18:54.857Z,9.16
2018-09-08T02:19:54.878Z,9.14
2018-09-08T02:20:54.834Z,9.06
2018-09-08T02:21:54.836Z,9.12
2018-09-08T02:22:54.820Z,9.06
2018-09-08T02:23:54.802Z,9.12
2018-09-08T02:24:54.795Z,9.11
2018-09-08T02:25:54.822Z,9.14
2018-09-08T02:26:54.770Z,8.93
2018-09-08T02:27:54.765Z,9.03
2018-09-08T02:28:54.757Z,9.03
2018-09-08T02:29:54.738Z,8.95
2018-09-08T02:30:54.734Z,8.98
2018-09-08T02:31:54.751Z,9.03
2018-09-08T02:32:54.715Z,8.96
2018-09-08T02:33:54.694Z,8.98
2018-09-08T02:34:54.707Z,8.93
2018-09-08T02:35:54.676Z,8.98
2018-09-08T02:36:54.663Z,8.95
2018-09-08T02:37:54.690Z,8.96
2018-09-08T02:38:54.647Z,8.98
2018-09-08T02:39:54.632Z,8.98
2018-09-08T02:40:54.687Z,8.96
2018-09-08T02:41:54.612Z,8.98
2018-09-08T02:42:54.597Z,8.96
2018-09-08T02:43:54.625Z,9.01
2018-09-08T02:44:54.574Z,8.98
2018-09-08T02:45:54.563Z,8.95
2018-09-08T02:46:54.569Z,8.98
2018-09-08T02:47:54.543Z,8.98
2018-09-08T02:48:54.535Z,8.98
2018-09-08T02:49:54.556Z,9.01
2018-09-08T02:50:54.513Z,9.01
2018-09-08T02:51:54.501Z,9.06
2018-09-08T02:52:54.509Z,9.04
2018-09-08T02:53:54.480Z,9.06
2018-09-08T02:54:54.470Z,9.01
2018-09-08T02:55:54.501Z,9.12
2018-09-08T02:56:54.449Z,9.11
2018-09-08T02:57:54.435Z,9.08
2018-09-08T02:58:54.441Z,9.06
2018-09-08T02:59:54.414Z,9.09
2018-09-08T03:00:54.405Z,9.12
2018-09-08T03:01:54.429Z,9.14
2018-09-08T03:02:54.380Z,9.11
2018-09-08T03:03:54.372Z,9.03
2018-09-08T03:04:54.369Z,9.03
2018-09-08T03:05:54.353Z,9.11
2018-09-08T03:06:54.340Z,9.04
2018-09-08T03:07:54.360Z,9.06
2018-09-08T03:08:54.315Z,9.14
2018-09-08T03:09:54.304Z,9.12
2018-09-08T03:10:54.306Z,9.12
2018-09-08T03:11:54.292Z,9.04
2018-09-08T03:12:54.287Z,9.08
2018-09-08T03:13:54.313Z,9.15
2018-09-08T03:14:54.249Z,9.14
2018-09-08T03:15:54.249Z,9.08
2018-09-08T03:16:54.234Z,9.19
2018-09-08T03:17:54.216Z,9.14
2018-09-08T03:18:54.225Z,9.14
2018-09-08T03:19:54.252Z,9.06
2018-09-08T03:20:54.184Z,9.15
2018-09-08T03:21:54.172Z,9.12
2018-09-08T03:22:54.161Z,9.11
2018-09-08T03:23:54.151Z,9.03
2018-09-08T03:24:54.151Z,8.95
2018-09-08T03:25:54.183Z,8.99
2018-09-08T03:26:54.131Z,8.98
2018-09-08T03:27:54.120Z,8.95
2018-09-08T03:28:54.111Z,8.95
2018-09-08T03:29:54.096Z,8.92
2018-09-08T03:30:54.076Z,8.88
2018-09-08T03:31:54.111Z,8.86
2018-09-08T03:32:54.058Z,8.96
2018-09-08T03:33:54.043Z,8.89
2018-09-08T03:34:54.073Z,8.86
2018-09-08T03:35:54.029Z,8.93
2018-09-08T03:36:54.027Z,8.89
2018-09-08T03:37:54.044Z,8.83
2018-09-08T03:38:53.989Z,8.88
2018-09-08T03:39:53.981Z,8.90
2018-09-08T03:40:53.970Z,8.90
2018-09-08T03:41:53.959Z,8.85
2018-09-08T03:42:53.966Z,8.90
2018-09-08T03:43:53.980Z,8.83
2018-09-08T03:44:53.923Z,8.86
2018-09-08T03:45:53.911Z,8.89
2018-09-08T03:46:53.903Z,8.83
2018-09-08T03:47:53.892Z,8.85
2018-09-08T03:48:53.887Z,8.85
2018-09-08T03:49:53.906Z,8.81
2018-09-08T03:50:53.860Z,8.89
2018-09-08T03:51:53.851Z,8.89
2018-09-08T03:52:53.836Z,8.92
2018-09-08T03:53:53.829Z,8.89
2018-09-08T03:54:53.819Z,8.95
2018-09-08T03:55:53.854Z,8.92
2018-09-08T03:56:53.823Z,8.90
2018-09-08T03:57:53.781Z,8.89
2018-09-08T03:58:53.815Z,8.95
2018-09-08T03:59:53.768Z,8.93
2018-09-08T04:00:53.749Z,8.90
2018-09-08T04:01:53.797Z,8.95
2018-09-08T04:02:53.733Z,8.86
2018-09-08T04:03:53.720Z,8.81
2018-09-08T04:04:53.709Z,8.86
2018-09-08T04:05:53.699Z,8.89
2018-09-08T04:06:53.685Z,8.86
2018-09-08T04:07:53.705Z,8.88
2018-09-08T04:08:53.670Z,8.81
2018-09-08T04:09:53.664Z,8.86
2018-09-08T04:10:53.654Z,8.81
2018-09-08T04:11:53.645Z,8.71
2018-09-08T04:12:53.626Z,8.65
2018-09-08T04:13:53.659Z,8.74
2018-09-08T04:14:53.610Z,8.67
2018-09-08T04:15:53.595Z,8.57
2018-09-08T04:16:53.596Z,8.62
2018-09-08T04:17:53.566Z,8.57
2018-09-08T04:18:53.564Z,8.55
2018-09-08T04:19:53.575Z,8.50
2018-09-08T04:20:53.536Z,8.53
2018-09-08T04:21:53.543Z,8.46
2018-09-08T04:22:53.521Z,8.42
2018-09-08T04:23:53.509Z,8.42
2018-09-08T04:24:53.491Z,8.44
2018-09-08T04:25:53.521Z,8.34
2018-09-08T04:26:53.479Z,8.37
2018-09-08T04:27:53.466Z,8.41
2018-09-08T04:28:53.447Z,8.41
2018-09-08T04:29:53.440Z,8.31
2018-09-08T04:30:53.423Z,8.29
2018-09-08T04:31:53.459Z,8.32
2018-09-08T04:32:53.403Z,8.31
2018-09-08T04:33:53.401Z,8.28
2018-09-08T04:34:53.385Z,8.24
2018-09-08T04:35:53.377Z,8.29
2018-09-08T04:36:53.362Z,8.19
2018-09-08T04:37:53.392Z,8.32
2018-09-08T04:38:53.339Z,8.29
2018-09-08T04:39:53.336Z,8.26
2018-09-08T04:40:53.342Z,8.31
2018-09-08T04:41:53.305Z,8.14
2018-09-08T04:42:53.298Z,8.21
2018-09-08T04:43:53.312Z,8.28
2018-09-08T04:44:53.272Z,8.20
2018-09-08T04:45:53.265Z,8.04
2018-09-08T04:46:53.249Z,8.04
2018-09-08T04:47:53.243Z,8.01
2018-09-08T04:48:53.234Z,8.02
2018-09-08T04:49:53.269Z,8.05
2018-09-08T04:50:53.220Z,8.04
2018-09-08T04:51:53.197Z,8.04
2018-09-08T04:52:53.195Z,7.99
2018-09-08T04:53:53.182Z,8.04
2018-09-08T04:54:53.172Z,8.04
2018-09-08T04:55:53.199Z,7.99
2018-09-08T04:56:53.149Z,8.04
2018-09-08T04:57:53.142Z,8.12
2018-09-08T04:58:53.142Z,8.01
2018-09-08T04:59:53.112Z,8.01
2018-09-08T05:00:53.101Z,8.01
2018-09-08T05:01:53.149Z,8.01
2018-09-08T05:02:53.093Z,7.98
2018-09-08T05:03:53.077Z,8.05
2018-09-08T05:04:53.066Z,8.06
2018-09-08T05:05:53.057Z,8.14
2018-09-08T05:06:53.041Z,8.13
2018-09-08T05:07:53.064Z,8.12
2018-09-08T05:08:53.033Z,8.14
2018-09-08T05:09:53.004Z,8.13
2018-09-08T05:10:52.996Z,8.10
2018-09-08T05:11:53.029Z,8.13
2018-09-08T05:12:52.969Z,8.13
2018-09-08T05:13:52.998Z,8.19
2018-09-08T05:14:52.948Z,8.19
2018-09-08T05:15:52.937Z,8.09
2018-09-08T05:16:52.937Z,8.16
2018-09-08T05:17:52.916Z,8.19
2018-09-08T05:18:52.906Z,8.16
2018-09-08T05:19:52.922Z,8.20
2018-09-08T05:20:52.884Z,8.17
2018-09-08T05:21:52.873Z,8.12
2018-09-08T05:22:52.868Z,8.20
2018-09-08T05:23:52.856Z,8.19
2018-09-08T05:24:52.838Z,8.17
2018-09-08T05:25:52.864Z,8.28
2018-09-08T05:26:52.820Z,8.26
2018-09-08T05:27:52.811Z,8.29
2018-09-08T05:28:52.793Z,8.35
2018-09-08T05:29:52.789Z,8.32
2018-09-08T05:30:52.783Z,8.29
2018-09-08T05:31:52.799Z,8.41
2018-09-08T05:32:52.753Z,8.44
2018-09-08T05:33:52.743Z,8.50
2018-09-08T05:34:52.790Z,8.59
2018-09-08T05:35:52.729Z,8.50
2018-09-08T05:36:52.739Z,8.49
2018-09-08T05:37:52.731Z,8.50
2018-09-08T05:38:52.726Z,8.57
2018-09-08T05:39:52.681Z,8.50
2018-09-08T05:40:52.676Z,8.56
2018-09-08T05:41:52.669Z,8.59
2018-09-08T05:42:52.704Z,8.65
2018-09-08T05:43:52.683Z,8.60
2018-09-08T05:44:52.625Z,8.70
2018-09-08T05:45:52.611Z,8.71
2018-09-08T05:46:52.599Z,8.70
2018-09-08T05:47:52.592Z,8.74
2018-09-08T05:48:52.630Z,8.85
2018-09-08T05:49:52.630Z,8.83
2018-09-08T05:50:52.557Z,8.86
2018-09-08T05:51:52.548Z,8.86
2018-09-08T05:52:52.541Z,8.96
2018-09-08T05:53:52.523Z,8.93
2018-09-08T05:54:52.513Z,8.95
2018-09-08T05:55:52.542Z,8.93
2018-09-08T05:56:52.490Z,8.93
2018-09-08T05:57:52.481Z,9.04
2018-09-08T05:58:52.468Z,9.01
2018-09-08T05:59:52.459Z,9.11
2018-09-08T06:00:52.446Z,9.16
2018-09-08T06:01:52.488Z,9.11
2018-09-08T06:02:52.425Z,9.14
2018-09-08T06:03:52.415Z,9.14
2018-09-08T06:04:52.403Z,9.30
2018-09-08T06:05:52.392Z,9.37
2018-09-08T06:06:52.386Z,9.41
2018-09-08T06:07:52.408Z,9.45
2018-09-08T06:08:52.359Z,9.52
2018-09-08T06:09:52.349Z,9.45
2018-09-08T06:10:52.338Z,9.48
2018-09-08T06:11:52.331Z,9.60
2018-09-08T06:12:52.320Z,9.57
2018-09-08T06:13:52.337Z,9.65
2018-09-08T06:14:52.304Z,9.70
2018-09-08T06:15:52.286Z,9.70
2018-09-08T06:16:52.275Z,9.83
2018-09-08T06:17:52.302Z,9.87
2018-09-08T06:18:52.252Z,9.93
2018-09-08T06:19:52.286Z,10.02
2018-09-08T06:20:52.234Z,9.94
2018-09-08T06:21:52.219Z,10.01
2018-09-08T06:22:52.220Z,10.03
2018-09-08T06:23:52.197Z,10.16
2018-09-08T06:24:52.185Z,10.21
2018-09-08T06:25:52.216Z,10.31
2018-09-08T06:26:52.168Z,10.35
2018-09-08T06:27:52.153Z,10.31
2018-09-08T06:28:52.168Z,10.48
2018-09-08T06:29:52.132Z,10.54
2018-09-08T06:30:52.119Z,10.55
2018-09-08T06:31:52.242Z,10.72
2018-09-08T06:32:52.110Z,10.64
2018-09-08T06:33:52.105Z,10.76
2018-09-08T06:34:52.094Z,10.80
2018-09-08T06:35:52.095Z,10.80
2018-09-08T06:36:52.055Z,10.87
2018-09-08T06:37:52.084Z,10.90
2018-09-08T06:38:52.075Z,10.98
2018-09-08T06:39:52.201Z,10.98
2018-09-08T06:40:52.123Z,11.05
2018-09-08T06:41:52.017Z,11.25
2018-09-08T06:42:52.011Z,11.23
2018-09-08T06:43:52.097Z,11.33
2018-09-08T06:44:52.026Z,11.40
2018-09-08T06:45:51.965Z,11.45
2018-09-08T06:46:51.962Z,11.49
2018-09-08T06:47:51.941Z,11.56
2018-09-08T06:48:51.929Z,11.66
2018-09-08T06:49:52.065Z,11.77
2018-09-08T06:50:51.949Z,11.82
2018-09-08T06:51:51.910Z,11.93
2018-09-08T06:52:51.896Z,12.07
2018-09-08T06:53:51.950Z,12.13
2018-09-08T06:54:51.900Z,12.18
2018-09-08T06:55:51.892Z,12.26
2018-09-08T06:56:51.853Z,12.43
2018-09-08T06:57:51.847Z,12.44
2018-09-08T06:58:51.826Z,12.48
2018-09-08T06:59:51.846Z,12.46
2018-09-08T07:00:51.802Z,12.50
2018-09-08T07:01:51.824Z,12.55
2018-09-08T07:02:51.775Z,12.65
2018-09-08T07:03:51.764Z,12.77
2018-09-08T07:04:51.755Z,12.76
2018-09-08T07:05:51.753Z,12.90
2018-09-08T07:06:51.737Z,12.90
2018-09-08T07:07:51.747Z,12.90
2018-09-08T07:08:51.713Z,13.06
2018-09-08T07:09:51.692Z,13.05
2018-09-08T07:10:51.765Z,13.14
2018-09-08T07:11:51.677Z,13.17
2018-09-08T07:12:51.660Z,13.20
2018-09-08T07:13:51.690Z,13.26
2018-09-08T07:14:51.638Z,13.35
2018-09-08T07:15:51.688Z,13.32
2018-09-08T07:16:51.624Z,13.40
2018-09-08T07:17:51.730Z,13.53
2018-09-08T07:18:51.610Z,13.54
2018-09-08T07:19:51.628Z,13.61
2018-09-08T07:20:51.766Z,13.71
2018-09-08T07:21:51.568Z,13.55
2018-09-08T07:22:51.657Z,13.76
2018-09-08T07:23:51.551Z,13.85
2018-09-08T07:24:51.578Z,13.85
2018-09-08T07:25:51.549Z,13.82
2018-09-08T07:26:51.514Z,13.85
2018-09-08T07:27:51.502Z,13.93
2018-09-08T07:28:51.493Z,13.79
2018-09-08T07:29:51.549Z,13.91
2018-09-08T07:30:51.484Z,13.98
2018-09-08T07:31:51.521Z,14.05
2018-09-08T07:32:51.534Z,14.16
2018-09-08T07:33:51.433Z,14.28
2018-09-08T07:34:51.426Z,14.26
2018-09-08T07:35:51.416Z,14.38
2018-09-08T07:36:51.408Z,14.38
2018-09-08T07:37:51.432Z,14.49
2018-09-08T07:38:51.523Z,14.44
2018-09-08T07:39:51.501Z,14.49
2018-09-08T07:40:51.359Z,14.53
2018-09-08T07:41:51.367Z,14.58
2018-09-08T07:42:51.342Z,14.67
2018-09-08T07:43:51.356Z,14.83
2018-09-08T07:44:51.315Z,14.93
2018-09-08T07:45:51.317Z,15.03
2018-09-08T07:46:51.298Z,15.11
2018-09-08T07:47:51.343Z,15.26
2018-09-08T07:48:51.272Z,15.40
2018-09-08T07:49:51.298Z,15.44
2018-09-08T07:50:51.266Z,15.45
2018-09-08T07:51:51.242Z,15.56
2018-09-08T07:52:51.230Z,15.63
2018-09-08T07:53:51.265Z,15.73
2018-09-08T07:54:51.203Z,15.77
2018-09-08T07:55:51.233Z,15.73
2018-09-08T07:56:51.191Z,15.78
2018-09-08T07:57:51.169Z,15.81
2018-09-08T07:58:51.174Z,15.73
2018-09-08T07:59:51.154Z,15.77
2018-09-08T08:00:51.137Z,15.81
2018-09-08T08:01:51.199Z,15.83
2018-09-08T08:02:51.113Z,15.69
2018-09-08T08:03:51.115Z,15.70
2018-09-08T08:04:51.097Z,15.68
2018-09-08T08:05:51.088Z,15.66
2018-09-08T08:06:51.235Z,15.70
2018-09-08T08:07:51.108Z,15.66
2018-09-08T08:08:51.045Z,15.83
2018-09-08T08:09:51.047Z,15.76
2018-09-08T08:10:51.030Z,15.83
2018-09-08T08:11:51.026Z,15.85
2018-09-08T08:12:51.011Z,15.98
2018-09-08T08:13:51.026Z,16.06
2018-09-08T08:14:50.990Z,16.06
2018-09-08T08:15:50.983Z,16.16
2018-09-08T08:16:50.964Z,16.16
2018-09-08T08:17:51.011Z,16.21
2018-09-08T08:18:50.950Z,16.32
2018-09-08T08:19:50.962Z,16.24
2018-09-08T08:20:50.920Z,16.33
2018-09-08T08:21:50.910Z,16.25
2018-09-08T08:22:50.902Z,16.42
2018-09-08T08:23:50.883Z,16.40
2018-09-08T08:24:50.900Z,16.44
2018-09-08T08:25:50.901Z,16.51
2018-09-08T08:26:50.852Z,16.40
2018-09-08T08:27:50.838Z,16.49
2018-09-08T08:28:50.829Z,16.40
2018-09-08T08:29:50.813Z,16.47
2018-09-08T08:30:50.801Z,16.47
2018-09-08T08:31:50.904Z,16.54
2018-09-08T08:32:50.780Z,16.49
2018-09-08T08:33:50.779Z,16.44
2018-09-08T08:34:50.759Z,16.51
2018-09-08T08:35:50.752Z,16.62
2018-09-08T08:36:50.742Z,16.64
2018-09-08T08:37:50.761Z,16.73
2018-09-08T08:38:51.927Z,16.73
2018-09-08T08:39:50.783Z,16.83
2018-09-08T08:40:50.790Z,16.92
2018-09-08T08:41:50.684Z,16.95
2018-09-08T08:42:50.703Z,17.07
2018-09-08T08:43:51.311Z,17.07
2018-09-08T08:44:50.650Z,17.24
2018-09-08T08:45:50.651Z,17.24
2018-09-08T08:46:50.667Z,17.20
2018-09-08T08:47:50.634Z,17.10
2018-09-08T08:48:50.628Z,17.17
2018-09-08T08:49:50.754Z,17.19
2018-09-08T08:50:50.597Z,17.32
2018-09-08T08:51:50.575Z,17.41
2018-09-08T08:52:50.588Z,17.39
2018-09-08T08:53:50.568Z,17.41
2018-09-08T08:54:50.540Z,17.28
2018-09-08T08:55:50.601Z,17.50
2018-09-08T08:56:50.523Z,17.50
2018-09-08T08:57:50.518Z,17.45
2018-09-08T08:58:50.496Z,17.38
2018-09-08T08:59:50.492Z,17.37
2018-09-08T09:00:50.498Z,17.38
2018-09-08T09:01:50.502Z,17.34
2018-09-08T09:02:50.453Z,17.34
2018-09-08T09:03:50.463Z,17.47
2018-09-08T09:04:50.431Z,17.41
2018-09-08T09:05:50.467Z,17.52
2018-09-08T09:06:50.411Z,17.56
2018-09-08T09:07:50.433Z,17.49
2018-09-08T09:08:50.400Z,17.49
2018-09-08T09:09:50.391Z,17.41
2018-09-08T09:10:50.369Z,17.39
2018-09-08T09:11:50.611Z,17.50
2018-09-08T09:12:50.396Z,17.57
2018-09-08T09:13:50.364Z,17.76
2018-09-08T09:14:50.327Z,17.86
2018-09-08T09:15:50.319Z,17.99
2018-09-08T09:16:50.302Z,18.06
2018-09-08T09:17:50.340Z,18.06
2018-09-08T09:18:50.791Z,18.13
2018-09-08T09:19:50.319Z,18.15
2018-09-08T09:20:50.260Z,18.17
2018-09-08T09:21:50.259Z,18.13
2018-09-08T09:22:50.354Z,18.26
2018-09-08T09:23:50.229Z,18.18
2018-09-08T09:24:50.693Z,18.09
2018-09-08T09:25:50.242Z,18.09
2018-09-08T09:26:50.195Z,18.11
2018-09-08T09:27:50.253Z,18.13
2018-09-08T09:28:50.176Z,18.11
2018-09-08T09:29:50.166Z,18.27
2018-09-08T09:30:50.163Z,18.31
2018-09-08T09:31:50.189Z,18.39
2018-09-08T09:32:50.126Z,18.45
2018-09-08T09:33:50.126Z,18.56
2018-09-08T09:34:50.186Z,18.46
2018-09-08T09:35:50.133Z,18.34
2018-09-08T09:36:50.082Z,18.21
2018-09-08T09:37:50.130Z,18.24
2018-09-08T09:38:50.113Z,18.34
2018-09-08T09:39:50.057Z,18.43
2018-09-08T09:40:50.042Z,18.51
2018-09-08T09:41:50.077Z,18.46
2018-09-08T09:42:50.040Z,18.56
2018-09-08T09:43:50.048Z,18.43
2018-09-08T09:44:50.007Z,18.31
2018-09-08T09:45:49.986Z,18.36
2018-09-08T09:46:49.987Z,18.36
2018-09-08T09:47:49.962Z,18.34
2018-09-08T09:48:49.954Z,18.49
2018-09-08T09:49:50.009Z,18.56
2018-09-08T09:50:49.932Z,18.54
2018-09-08T09:51:49.921Z,18.57
2018-09-08T09:52:49.909Z,18.54
2018-09-08T09:53:49.900Z,18.56
2018-09-08T09:54:49.890Z,18.64
2018-09-08T09:55:49.914Z,18.64
2018-09-08T09:56:49.870Z,18.60
2018-09-08T09:57:49.871Z,18.68
2018-09-08T09:58:49.844Z,18.61
2018-09-08T09:59:49.833Z,18.67
2018-09-08T10:00:49.823Z,18.64
2018-09-08T10:01:49.841Z,18.75
2018-09-08T10:02:49.800Z,18.94
2018-09-08T10:03:49.791Z,19.13
2018-09-08T10:04:49.819Z,19.12
2018-09-08T10:05:49.767Z,19.05
2018-09-08T10:06:49.759Z,19.07
2018-09-08T10:07:49.786Z,19.16
2018-09-08T10:08:49.734Z,19.07
2018-09-08T10:09:49.725Z,19.27
2018-09-08T10:10:49.727Z,19.38
2018-09-08T10:11:49.708Z,19.57
2018-09-08T10:12:49.699Z,19.74
2018-09-08T10:13:49.723Z,19.89
2018-09-08T10:14:49.674Z,20.09
2018-09-08T10:15:49.660Z,20.18
2018-09-08T10:16:49.649Z,20.18
2018-09-08T10:17:49.790Z,20.18
2018-09-08T10:18:49.623Z,19.87
2018-09-08T10:19:49.655Z,19.93
2018-09-08T10:20:49.601Z,19.89
2018-09-08T10:21:49.593Z,20.02
2018-09-08T10:22:49.584Z,20.08
2018-09-08T10:24:04.343Z,19.92
2018-09-08T10:24:50.724Z,19.89
2018-09-08T10:25:49.563Z,19.84
2018-09-08T10:26:49.553Z,19.59
2018-09-08T10:27:49.529Z,19.35
2018-09-08T10:28:49.525Z,19.09
2018-09-08T10:29:49.960Z,19.00
2018-09-08T10:30:49.623Z,18.76
2018-09-08T10:31:49.940Z,18.78
2018-09-08T10:32:49.473Z,18.64
2018-09-08T10:33:49.475Z,18.68
2018-09-08T10:34:49.508Z,18.58
2018-09-08T10:35:49.436Z,18.56
2018-09-08T10:36:49.534Z,18.43
2018-09-08T10:37:49.423Z,18.60
2018-09-08T10:38:49.410Z,18.76
2018-09-08T10:39:49.425Z,18.67
2018-09-08T10:40:49.390Z,18.61
2018-09-08T10:41:49.371Z,18.67
2018-09-08T10:42:49.440Z,18.58
2018-09-08T10:43:49.351Z,18.68
2018-09-08T10:44:49.487Z,18.57
2018-09-08T10:45:49.331Z,18.71
2018-09-08T10:46:49.317Z,18.89
2018-09-08T10:47:49.331Z,18.94
2018-09-08T10:48:49.337Z,18.81
2018-09-08T10:49:49.296Z,18.86
2018-09-08T10:50:49.287Z,18.81
2018-09-08T10:51:49.271Z,18.97
2018-09-08T10:52:49.273Z,19.08
2018-09-08T10:53:49.239Z,19.20
2018-09-08T10:54:49.263Z,19.24
2018-09-08T10:55:49.237Z,19.35
2018-09-08T10:56:49.224Z,19.52
2018-09-08T10:57:49.198Z,19.60
2018-09-08T10:58:49.224Z,19.64
2018-09-08T10:59:49.188Z,19.79
2018-09-08T11:00:49.203Z,19.92
2018-09-08T11:01:49.284Z,19.86
2018-09-08T11:02:49.379Z,19.87
2018-09-08T11:03:49.128Z,19.82
2018-09-08T11:04:49.122Z,19.75
2018-09-08T11:05:49.150Z,19.68
2018-09-08T11:06:49.151Z,19.56
2018-09-08T11:07:49.097Z,19.54
2018-09-08T11:08:49.079Z,19.44
2018-09-08T11:09:49.073Z,19.30
2018-09-08T11:10:49.070Z,19.27
2018-09-08T11:11:49.045Z,19.22
2018-09-08T11:12:49.064Z,19.35
2018-09-08T11:13:49.020Z,19.53
2018-09-08T11:14:49.062Z,19.68
2018-09-08T11:15:49.075Z,19.68
2018-09-08T11:16:48.992Z,19.59
2018-09-08T11:17:48.985Z,19.44
2018-09-08T11:18:49.054Z,19.38
2018-09-08T11:19:48.957Z,19.27
2018-09-08T11:20:48.949Z,19.35
2018-09-08T11:21:48.932Z,19.49
2018-09-08T11:22:48.977Z,19.47
2018-09-08T11:23:48.909Z,19.70
2018-09-08T11:24:48.943Z,19.89
2018-09-08T11:25:48.888Z,19.92
2018-09-08T11:26:48.883Z,19.96
2018-09-08T11:27:48.894Z,19.82
2018-09-08T11:28:48.864Z,19.96
2018-09-08T11:29:48.842Z,20.11
2018-09-08T11:30:48.930Z,20.17
2018-09-08T11:31:48.825Z,20.14
2018-09-08T11:32:48.812Z,20.12
2018-09-08T11:33:48.804Z,20.11
2018-09-08T11:34:48.799Z,19.99
2018-09-08T11:35:48.777Z,19.74
2018-09-08T11:37:19.432Z,19.90
2018-09-08T11:38:19.524Z,19.84
2018-09-08T11:39:19.383Z,19.82
2018-09-08T11:40:19.374Z,19.67
2018-09-08T11:41:19.361Z,19.72
2018-09-08T11:42:19.349Z,19.87
2018-09-08T11:43:19.388Z,19.74
2018-09-08T11:44:19.326Z,19.84
2018-09-08T11:45:19.345Z,19.93
2018-09-08T11:46:19.304Z,20.09
2018-09-08T11:47:19.294Z,20.27
2018-09-08T11:48:19.292Z,20.42
2018-09-08T11:49:19.304Z,20.49
2018-09-08T11:50:19.266Z,20.67
2018-09-08T11:51:19.254Z,20.70
2018-09-08T11:52:19.240Z,20.83
2018-09-08T11:53:19.236Z,20.88
2018-09-08T11:54:19.222Z,20.92
2018-09-08T11:55:19.241Z,20.89
2018-09-08T11:56:19.197Z,20.86
2018-09-08T11:57:19.189Z,20.95
2018-09-08T11:58:19.190Z,21.05
2018-09-08T11:59:19.167Z,21.18
2018-09-08T12:00:19.152Z,21.18
2018-09-08T12:01:19.173Z,21.37
2018-09-08T12:02:19.263Z,21.40
2018-09-08T12:03:19.118Z,21.51
2018-09-08T12:04:19.117Z,21.38
2018-09-08T12:05:19.108Z,21.30
2018-09-08T12:06:19.101Z,21.45
2018-09-08T12:07:19.104Z,21.77
2018-09-08T12:08:19.062Z,22.12
2018-09-08T12:09:19.050Z,22.31
2018-09-08T12:10:19.039Z,22.31
2018-09-08T12:11:19.044Z,22.37
2018-09-08T12:12:19.018Z,22.59
2018-09-08T12:13:19.041Z,22.89
2018-09-08T12:14:18.997Z,22.98
2018-09-08T12:15:18.984Z,23.18
2018-09-08T12:16:18.975Z,23.41
2018-09-08T12:17:18.973Z,23.63
2018-09-08T12:18:18.958Z,23.84
2018-09-08T12:19:19.002Z,23.70
2018-09-08T12:20:18.931Z,23.76
2018-09-08T12:21:18.922Z,23.79
2018-09-08T12:22:19.027Z,23.84
2018-09-08T12:23:18.921Z,23.92
2018-09-08T12:24:18.887Z,24.26
2018-09-08T12:25:18.908Z,24.47
2018-09-08T12:26:18.867Z,24.79
2018-09-08T12:27:18.855Z,25.09
2018-09-08T12:28:18.845Z,25.33
2018-09-08T12:29:18.853Z,25.00
2018-09-08T12:30:18.854Z,24.79
2018-09-08T12:31:18.845Z,24.78
2018-09-08T12:32:18.800Z,25.06
2018-09-08T12:33:18.791Z,25.21
2018-09-08T12:34:18.780Z,25.26
2018-09-08T12:35:18.827Z,25.38
2018-09-08T12:36:18.761Z,25.11
2018-09-08T12:37:18.907Z,24.96
2018-09-08T12:38:18.760Z,24.70
2018-09-08T12:39:18.741Z,24.63
2018-09-08T12:40:18.718Z,24.65
2018-09-08T12:41:18.709Z,24.94
2018-09-08T12:42:18.696Z,25.23
2018-09-08T12:43:18.724Z,25.61
2018-09-08T12:44:18.675Z,25.73
2018-09-08T12:45:18.666Z,25.78
2018-09-08T12:46:18.653Z,25.55
2018-09-08T12:47:18.651Z,25.61
2018-09-08T12:48:18.639Z,25.61
2018-09-08T12:49:18.669Z,25.68
2018-09-08T12:50:18.619Z,25.77
2018-09-08T12:51:18.601Z,25.30
2018-09-08T12:52:18.590Z,25.33
2018-09-08T12:53:18.619Z,24.79
2018-09-08T12:54:18.568Z,24.94
2018-09-08T12:55:18.615Z,25.33
2018-09-08T12:56:18.546Z,25.36
2018-09-08T12:57:18.536Z,25.43
2018-09-08T12:58:18.525Z,25.31
2018-09-08T12:59:18.548Z,25.37
2018-09-08T13:00:18.503Z,25.67
2018-09-08T13:01:18.553Z,25.67
2018-09-08T13:02:18.529Z,26.00
2018-09-08T13:03:18.471Z,26.10
2018-09-08T13:04:18.463Z,26.67
2018-09-08T13:05:18.450Z,26.39